Time;durP1;ratioP1;P1;durP2;ratioP2;P2;SDS_P1;SDS_P2;PMS_P1;PMS_P2;Temp;Humidity;BMP_temperature;BMP_pressure;BME280_temperature;BME280_humidity;BME280_pressure;Samples;Min_cycle;Max_cycle;Signal;HPM_P1;HPM_P2
2023/06/01 00:01:04;;;;;;;4.20;3.03;;;;;;;;;;5029988;28;20167;-73
2023/06/01 00:03:29;;;;;;;4.07;2.70;;;;;;;;;;5028568;28;20197;-73
2023/06/01 00:05:54;;;;;;;4.27;2.93;;;;;;;;;;5028434;28;20179;-72
2023/06/01 00:08:22;;;;;;;3.20;2.90;;;;;;;;;;5029506;28;20178;-72
2023/06/01 00:10:48;;;;;;;7.00;3.43;;;;;;;;;;5029143;28;20207;-72
2023/06/01 00:13:13;;;;;;;6.50;2.70;;;;;;;;;;5029223;28;20179;-72
2023/06/01 00:15:38;;;;;;;3.13;2.80;;;;;;;;;;5030301;28;20209;-72
2023/06/01 00:18:05;;;;;;;3.63;2.60;;;;;;;;;;5031135;28;20309;-72
2023/06/01 00:20:31;;;;;;;5.47;2.60;;;;;;;;;;5027879;28;20174;-72
2023/06/01 00:22:58;;;;;;;4.63;2.50;;;;;;;;;;5029423;28;20292;-72
2023/06/01 00:25:23;;;;;;;4.73;2.50;;;;;;;;;;5029990;28;20265;-72
2023/06/01 00:27:48;;;;;;;4.17;3.10;;;;;;;;;;5027119;28;20340;-72
2023/06/01 00:30:13;;;;;;;2.90;2.60;;;;;;;;;;5029652;28;20204;-73
2023/06/01 00:32:39;;;;;;;3.50;3.20;;;;;;;;;;5028790;28;20200;-72
2023/06/01 00:35:04;;;;;;;3.43;2.60;;;;;;;;;;5028894;28;20292;-72
2023/06/01 00:37:29;;;;;;;3.43;2.67;;;;;;;;;;5028999;28;20177;-72
2023/06/01 00:39:55;;;;;;;3.43;2.77;;;;;;;;;;5027672;28;20204;-72
2023/06/01 00:42:20;;;;;;;4.63;3.07;;;;;;;;;;5025564;28;20204;-72
2023/06/01 00:44:45;;;;;;;2.87;2.57;;;;;;;;;;5029634;28;20265;-72
2023/06/01 00:47:10;;;;;;;2.57;2.33;;;;;;;;;;5025621;28;20178;-72
2023/06/01 00:49:36;;;;;;;5.93;2.87;;;;;;;;;;5034281;28;20181;-72
2023/06/01 00:52:01;;;;;;;4.13;3.23;;;;;;;;;;5029038;28;20285;-72
2023/06/01 00:54:26;;;;;;;2.87;2.60;;;;;;;;;;5029252;28;20235;-73
2023/06/01 00:56:51;;;;;;;2.90;2.60;;;;;;;;;;5022598;28;20266;-72
2023/06/01 00:59:17;;;;;;;3.03;2.53;;;;;;;;;;5008157;28;20226;-72
2023/06/01 01:01:43;;;;;;;5.87;3.00;;;;;;;;;;5009422;28;20182;-72
2023/06/01 01:04:10;;;;;;;3.53;2.87;;;;;;;;;;5009938;28;20540;-72
2023/06/01 01:06:35;;;;;;;6.07;2.97;;;;;;;;;;5008369;28;20178;-72
2023/06/01 01:09:07;;;;;;;3.97;2.55;;;;;;;;;;5008188;28;20186;-72
2023/06/01 01:11:32;;;;;;;4.03;2.60;;;;;;;;;;5020831;28;20187;-72
2023/06/01 01:14:07;;;;;;;5.53;3.13;;;;;;;;;;5008193;28;20186;-72
2023/06/01 01:16:53;;;;;;;4.23;2.50;;;;;;;;;;5008154;28;20205;-72
2023/06/01 01:19:41;;;;;;;3.77;3.00;;;;;;;;;;5007199;28;20197;-72
2023/06/01 01:22:22;;;;;;;3.83;2.73;;;;;;;;;;5008562;28;20173;-72
2023/06/01 01:24:50;;;;;;;6.47;2.40;;;;;;;;;;5010177;28;20181;-72
2023/06/01 01:27:37;;;;;;;3.30;3.00;;;;;;;;;;5008404;28;20183;-72
2023/06/01 01:30:05;;;;;;;4.47;3.27;;;;;;;;;;5014866;28;20182;-72
2023/06/01 01:32:31;;;;;;;4.03;2.67;;;;;;;;;;5004159;28;20186;-72
2023/06/01 01:34:57;;;;;;;3.47;2.47;;;;;;;;;;5009754;28;20202;-72
2023/06/01 01:37:22;;;;;;;4.03;2.83;;;;;;;;;;5008635;28;20182;-72
2023/06/01 01:39:48;;;;;;;4.20;2.53;;;;;;;;;;5012773;28;20193;-72
2023/06/01 01:42:13;;;;;;;4.00;2.83;;;;;;;;;;5010026;28;20179;-72
2023/06/01 01:44:38;;;;;;;5.30;3.13;;;;;;;;;;5013618;28;20212;-72
2023/06/01 01:47:12;;;;;;;3.40;2.67;;;;;;;;;;5019086;28;20175;-72
2023/06/01 01:49:42;;;;;;;7.27;2.67;;;;;;;;;;5012445;28;20210;-72
2023/06/01 01:52:15;;;;;;;3.97;2.83;;;;;;;;;;5007737;28;20180;-72
2023/06/01 01:54:45;;;;;;;3.37;2.70;;;;;;;;;;5012745;28;20177;-72
2023/06/01 01:57:12;;;;;;;3.83;2.90;;;;;;;;;;5037889;28;20271;-74
2023/06/01 01:59:38;;;;;;;4.70;2.67;;;;;;;;;;5050678;28;20250;-74
2023/06/01 02:02:03;;;;;;;3.33;2.80;;;;;;;;;;5053137;28;20206;-74
2023/06/01 02:04:29;;;;;;;4.10;2.73;;;;;;;;;;5058340;28;20194;-74
2023/06/01 02:06:54;;;;;;;4.93;3.17;;;;;;;;;;5052877;28;20174;-74
2023/06/01 02:09:19;;;;;;;5.87;2.80;;;;;;;;;;5054050;28;20320;-74
2023/06/01 02:11:44;;;;;;;3.30;2.43;;;;;;;;;;5043286;28;20231;-74
2023/06/01 02:14:10;;;;;;;3.80;2.73;;;;;;;;;;5049943;28;20246;-74
2023/06/01 02:16:35;;;;;;;6.10;2.57;;;;;;;;;;5034865;28;20198;-74
2023/06/01 02:19:02;;;;;;;5.50;3.17;;;;;;;;;;5037769;28;20189;-74
2023/06/01 02:21:27;;;;;;;6.10;3.20;;;;;;;;;;5051940;28;20242;-75
2023/06/01 02:23:52;;;;;;;3.20;2.37;;;;;;;;;;5052959;28;20295;-74
2023/06/01 02:26:18;;;;;;;3.67;2.70;;;;;;;;;;5053181;28;20193;-72
2023/06/01 02:28:43;;;;;;;9.03;3.67;;;;;;;;;;5036505;28;20263;-72
2023/06/01 02:31:09;;;;;;;5.60;2.87;;;;;;;;;;5034155;28;20185;-72
2023/06/01 02:33:34;;;;;;;6.03;3.37;;;;;;;;;;5052686;28;20178;-72
2023/06/01 02:36:00;;;;;;;5.43;2.90;;;;;;;;;;5035389;28;20295;-72
2023/06/01 02:38:26;;;;;;;4.23;3.13;;;;;;;;;;5041123;28;20175;-71
2023/06/01 02:40:51;;;;;;;2.60;2.40;;;;;;;;;;5049807;28;20174;-72
2023/06/01 02:43:16;;;;;;;5.07;2.97;;;;;;;;;;5051209;28;20205;-72
2023/06/01 02:45:41;;;;;;;6.23;3.60;;;;;;;;;;5026368;28;20191;-72
2023/06/01 02:48:06;;;;;;;4.67;2.90;;;;;;;;;;5050912;28;20177;-72
2023/06/01 02:50:32;;;;;;;5.77;2.87;;;;;;;;;;5049104;28;20179;-72
2023/06/01 02:52:57;;;;;;;4.73;3.10;;;;;;;;;;5052004;28;20208;-72
2023/06/01 02:55:22;;;;;;;4.43;3.50;;;;;;;;;;5057559;28;20248;-72
2023/06/01 02:57:47;;;;;;;6.10;2.93;;;;;;;;;;5034302;28;20233;-72
2023/06/01 03:00:15;;;;;;;4.73;3.00;;;;;;;;;;5049147;28;20178;-72
2023/06/01 03:02:44;;;;;;;5.23;2.77;;;;;;;;;;5038734;28;20207;-72
2023/06/01 03:05:14;;;;;;;4.00;3.00;;;;;;;;;;5050065;28;20182;-72
2023/06/01 03:07:39;;;;;;;6.47;2.97;;;;;;;;;;5052401;28;20201;-71
2023/06/01 03:10:06;;;;;;;6.90;3.40;;;;;;;;;;5039726;28;20253;-72
2023/06/01 03:12:31;;;;;;;3.80;3.37;;;;;;;;;;5043240;28;20174;-72
2023/06/01 03:14:56;;;;;;;3.47;3.03;;;;;;;;;;5035998;28;20266;-72
2023/06/01 03:17:21;;;;;;;6.80;3.10;;;;;;;;;;5051209;28;20183;-72
2023/06/01 03:19:47;;;;;;;3.63;3.03;;;;;;;;;;5045228;28;20190;-72
2023/06/01 03:22:12;;;;;;;7.03;3.47;;;;;;;;;;5047019;28;20182;-72
2023/06/01 03:24:41;;;;;;;5.00;3.13;;;;;;;;;;5051596;28;20182;-72
2023/06/01 03:27:06;;;;;;;4.20;3.03;;;;;;;;;;5046406;28;20174;-72
2023/06/01 03:29:31;;;;;;;3.63;3.10;;;;;;;;;;5041953;28;20183;-72
2023/06/01 03:31:56;;;;;;;3.97;3.10;;;;;;;;;;5050630;28;20277;-72
2023/06/01 03:34:21;;;;;;;3.87;2.93;;;;;;;;;;5049252;28;20432;-72
2023/06/01 03:36:47;;;;;;;4.37;3.70;;;;;;;;;;5043463;28;20290;-72
2023/06/01 03:39:13;;;;;;;6.73;3.50;;;;;;;;;;5033844;28;20170;-72
2023/06/01 03:41:38;;;;;;;3.80;3.20;;;;;;;;;;5034551;28;20170;-72
2023/06/01 03:44:03;;;;;;;5.50;3.27;;;;;;;;;;5043709;28;20178;-72
2023/06/01 03:46:29;;;;;;;4.63;3.10;;;;;;;;;;5033321;28;20180;-71
2023/06/01 03:48:54;;;;;;;5.07;3.77;;;;;;;;;;5051376;28;20185;-72
2023/06/01 03:51:20;;;;;;;4.97;3.20;;;;;;;;;;5039452;28;20177;-72
2023/06/01 03:53:45;;;;;;;3.80;3.00;;;;;;;;;;5047340;28;20184;-72
2023/06/01 03:56:10;;;;;;;3.67;3.23;;;;;;;;;;5030138;28;20218;-72
2023/06/01 03:58:35;;;;;;;3.60;2.93;;;;;;;;;;5013511;28;20171;-72
2023/06/01 04:01:00;;;;;;;8.17;3.07;;;;;;;;;;5010020;28;20175;-72
2023/06/01 04:03:26;;;;;;;4.87;3.63;;;;;;;;;;5007769;28;20320;-72
2023/06/01 04:05:58;;;;;;;6.30;3.73;;;;;;;;;;5016496;28;20182;-72
2023/06/01 04:08:23;;;;;;;3.30;3.00;;;;;;;;;;5009787;28;20235;-71
2023/06/01 04:10:49;;;;;;;4.30;3.10;;;;;;;;;;5009950;28;20183;-72
2023/06/01 04:13:14;;;;;;;3.80;2.80;;;;;;;;;;5010330;28;20186;-72
2023/06/01 04:15:39;;;;;;;4.97;2.93;;;;;;;;;;5011279;28;20209;-72
2023/06/01 04:18:05;;;;;;;6.33;3.17;;;;;;;;;;5011110;28;20238;-72
2023/06/01 04:20:31;;;;;;;5.77;3.37;;;;;;;;;;5010552;28;20179;-72
2023/06/01 04:22:56;;;;;;;4.20;3.00;;;;;;;;;;5010125;28;20171;-72
2023/06/01 04:25:23;;;;;;;6.60;4.00;;;;;;;;;;5009343;28;20230;-72
2023/06/01 04:27:48;;;;;;;3.77;2.80;;;;;;;;;;5032493;28;20194;-72
2023/06/01 04:30:15;;;;;;;4.03;3.30;;;;;;;;;;5020092;28;20202;-72
2023/06/01 04:32:43;;;;;;;4.37;3.17;;;;;;;;;;5011271;28;20179;-72
2023/06/01 04:35:09;;;;;;;5.70;3.10;;;;;;;;;;5013585;28;20235;-72
2023/06/01 04:37:35;;;;;;;5.30;3.10;;;;;;;;;;5011570;28;20171;-72
2023/06/01 04:40:01;;;;;;;5.50;3.10;;;;;;;;;;5009338;28;20187;-72
2023/06/01 04:42:27;;;;;;;3.90;3.27;;;;;;;;;;5009484;28;20213;-72
2023/06/01 04:44:53;;;;;;;6.50;4.67;;;;;;;;;;5003526;28;20191;-71
2023/06/01 04:47:20;;;;;;;7.80;3.43;;;;;;;;;;4999714;28;20208;-72
2023/06/01 04:49:46;;;;;;;11.50;3.40;;;;;;;;;;4998811;28;20187;-72
2023/06/01 04:52:12;;;;;;;3.87;3.00;;;;;;;;;;5006916;28;20186;-72
2023/06/01 04:54:37;;;;;;;4.63;3.20;;;;;;;;;;5006195;28;20179;-72
2023/06/01 04:57:06;;;;;;;4.87;3.20;;;;;;;;;;5008303;28;20266;-72
2023/06/01 04:59:32;;;;;;;3.77;2.83;;;;;;;;;;5009468;28;20214;-72
2023/06/01 05:01:57;;;;;;;4.60;3.40;;;;;;;;;;5005317;28;20218;-71
2023/06/01 05:04:23;;;;;;;9.73;3.33;;;;;;;;;;5006643;28;20191;-72
2023/06/01 05:06:48;;;;;;;7.13;3.43;;;;;;;;;;5008997;28;20215;-72
2023/06/01 05:09:14;;;;;;;7.57;3.40;;;;;;;;;;5012464;28;20171;-72
2023/06/01 05:11:39;;;;;;;5.27;3.20;;;;;;;;;;5007324;28;20183;-72
2023/06/01 05:14:04;;;;;;;5.57;3.17;;;;;;;;;;5012437;28;20179;-72
2023/06/01 05:16:30;;;;;;;14.10;3.83;;;;;;;;;;5007804;28;20293;-72
2023/06/01 05:18:55;;;;;;;7.60;3.97;;;;;;;;;;5009407;28;20176;-74
2023/06/01 05:21:21;;;;;;;6.30;3.40;;;;;;;;;;5008520;28;20175;-74
2023/06/01 05:23:46;;;;;;;14.50;8.93;;;;;;;;;;5006786;28;20179;-74
2023/06/01 05:26:12;;;;;;;15.03;10.47;;;;;;;;;;5005962;28;20171;-74
2023/06/01 05:28:37;;;;;;;9.77;7.00;;;;;;;;;;5008976;28;20276;-74
2023/06/01 05:31:02;;;;;;;5.87;3.93;;;;;;;;;;5007589;28;20180;-74
2023/06/01 05:33:28;;;;;;;11.27;4.63;;;;;;;;;;5008864;28;20186;-74
2023/06/01 05:35:53;;;;;;;201.40;25.80;;;;;;;;;;5010443;28;20227;-74
2023/06/01 05:38:18;;;;;;;326.67;41.50;;;;;;;;;;5006644;28;20181;-74
2023/06/01 05:40:44;;;;;;;10.47;3.83;;;;;;;;;;5008997;28;20235;-74
2023/06/01 05:43:09;;;;;;;8.53;4.13;;;;;;;;;;5009357;28;20167;-74
2023/06/01 05:45:34;;;;;;;3.90;3.20;;;;;;;;;;5009292;28;20207;-74
2023/06/01 05:48:00;;;;;;;14.37;3.80;;;;;;;;;;5005230;28;20184;-74
2023/06/01 05:50:25;;;;;;;6.93;4.00;;;;;;;;;;5007799;28;20202;-74
2023/06/01 05:52:50;;;;;;;4.97;3.50;;;;;;;;;;5008157;28;20249;-74
2023/06/01 05:55:15;;;;;;;7.33;4.10;;;;;;;;;;5008068;28;20258;-74
2023/06/01 05:57:41;;;;;;;8.57;3.63;;;;;;;;;;5033207;28;20224;-72
2023/06/01 06:00:10;;;;;;;6.43;3.80;;;;;;;;;;5036343;28;20177;-72
2023/06/01 06:02:36;;;;;;;9.30;3.47;;;;;;;;;;5048535;28;20206;-72
2023/06/01 06:05:02;;;;;;;326.83;42.40;;;;;;;;;;5052743;28;20179;-72
2023/06/01 06:07:27;;;;;;;37.70;8.77;;;;;;;;;;5035321;28;20181;-72
2023/06/01 06:09:52;;;;;;;10.00;4.37;;;;;;;;;;5030079;28;20172;-72
2023/06/01 06:12:17;;;;;;;4.20;3.33;;;;;;;;;;5030997;28;20279;-73
2023/06/01 06:14:42;;;;;;;7.90;3.73;;;;;;;;;;5047201;28;20177;-72
2023/06/01 06:17:08;;;;;;;4.90;3.83;;;;;;;;;;5045080;28;20182;-72
2023/06/01 06:19:33;;;;;;;6.97;4.07;;;;;;;;;;5049830;28;20169;-72
2023/06/01 06:21:58;;;;;;;10.67;3.90;;;;;;;;;;5048087;28;20181;-72
2023/06/01 06:24:23;;;;;;;9.50;4.00;;;;;;;;;;5049839;28;20183;-72
2023/06/01 06:26:49;;;;;;;3.80;3.43;;;;;;;;;;5050077;28;20212;-72
2023/06/01 06:29:14;;;;;;;4.67;3.57;;;;;;;;;;5033012;28;20193;-72
2023/06/01 06:31:39;;;;;;;5.90;3.87;;;;;;;;;;5046471;28;20201;-72
2023/06/01 06:34:04;;;;;;;5.10;3.33;;;;;;;;;;5035420;28;20255;-72
2023/06/01 06:36:30;;;;;;;4.10;3.70;;;;;;;;;;5035719;28;20212;-72
2023/06/01 06:38:55;;;;;;;7.07;4.00;;;;;;;;;;5049679;28;20174;-72
2023/06/01 06:41:21;;;;;;;4.70;3.30;;;;;;;;;;5041468;28;20198;-72
2023/06/01 06:43:46;;;;;;;8.67;4.23;;;;;;;;;;5025289;28;20185;-72
2023/06/01 06:46:11;;;;;;;5.47;3.73;;;;;;;;;;5052258;28;20174;-71
2023/06/01 06:48:36;;;;;;;5.37;3.93;;;;;;;;;;5048405;28;20205;-72
2023/06/01 06:51:02;;;;;;;5.40;3.67;;;;;;;;;;5051781;28;20260;-72
2023/06/01 06:53:27;;;;;;;7.43;3.97;;;;;;;;;;5036805;28;20176;-72
2023/06/01 06:55:52;;;;;;;5.33;3.60;;;;;;;;;;5051212;28;20217;-72
2023/06/01 06:58:17;;;;;;;5.40;3.63;;;;;;;;;;5049939;28;20210;-72
2023/06/01 07:00:43;;;;;;;3.70;3.33;;;;;;;;;;5026439;28;20191;-72
2023/06/01 07:03:09;;;;;;;15.27;5.17;;;;;;;;;;5049593;28;20222;-72
2023/06/01 07:05:34;;;;;;;11.23;4.00;;;;;;;;;;5051878;28;20177;-72
2023/06/01 07:07:59;;;;;;;8.70;4.53;;;;;;;;;;5051004;28;20367;-72
2023/06/01 07:10:25;;;;;;;8.67;4.63;;;;;;;;;;5030926;28;20253;-72
2023/06/01 07:12:50;;;;;;;6.10;4.57;;;;;;;;;;5029194;28;20189;-72
2023/06/01 07:15:16;;;;;;;5.00;4.23;;;;;;;;;;5041581;28;20206;-72
2023/06/01 07:17:41;;;;;;;7.37;3.93;;;;;;;;;;5051589;28;20179;-72
2023/06/01 07:20:07;;;;;;;6.43;4.07;;;;;;;;;;5051683;28;20173;-72
2023/06/01 07:22:33;;;;;;;5.57;4.03;;;;;;;;;;5051171;28;20214;-72
2023/06/01 07:24:58;;;;;;;8.03;5.83;;;;;;;;;;5048943;28;20270;-72
2023/06/01 07:27:24;;;;;;;4.53;3.60;;;;;;;;;;5052278;28;20180;-72
2023/06/01 07:29:54;;;;;;;5.80;4.00;;;;;;;;;;5044835;28;20312;-72
2023/06/01 07:32:19;;;;;;;8.07;4.27;;;;;;;;;;5048129;28;20189;-72
2023/06/01 07:34:45;;;;;;;6.67;4.37;;;;;;;;;;5031329;28;20193;-72
2023/06/01 07:37:10;;;;;;;5.83;4.43;;;;;;;;;;5033870;28;20177;-72
2023/06/01 07:39:36;;;;;;;8.53;4.40;;;;;;;;;;5051018;28;20205;-72
2023/06/01 07:42:01;;;;;;;7.27;4.13;;;;;;;;;;5050474;28;20232;-72
2023/06/01 07:44:27;;;;;;;5.70;4.03;;;;;;;;;;5050156;28;20187;-72
2023/06/01 07:46:52;;;;;;;6.27;4.60;;;;;;;;;;5051773;28;20207;-72
2023/06/01 07:49:18;;;;;;;5.70;4.17;;;;;;;;;;5040065;28;20210;-72
2023/06/01 07:51:43;;;;;;;4.07;3.67;;;;;;;;;;5034682;28;20181;-72
2023/06/01 07:54:09;;;;;;;8.00;4.03;;;;;;;;;;5036318;28;20184;-72
2023/06/01 07:56:34;;;;;;;8.57;4.43;;;;;;;;;;5032429;28;20227;-72
2023/06/01 07:59:00;;;;;;;7.00;3.93;;;;;;;;;;5030865;28;20183;-72
2023/06/01 08:01:25;;;;;;;6.77;4.33;;;;;;;;;;5050320;28;20157;-72
2023/06/01 08:03:51;;;;;;;7.63;4.33;;;;;;;;;;5049181;28;20235;-72
2023/06/01 08:06:16;;;;;;;7.60;4.30;;;;;;;;;;5051648;28;20184;-72
2023/06/01 08:08:41;;;;;;;5.80;3.97;;;;;;;;;;5050794;28;20190;-72
2023/06/01 08:11:07;;;;;;;5.73;4.40;;;;;;;;;;5038933;28;20187;-72
2023/06/01 08:13:35;;;;;;;5.27;4.23;;;;;;;;;;5051072;28;20180;-72
2023/06/01 08:16:00;;;;;;;4.63;4.20;;;;;;;;;;5033475;28;20201;-72
2023/06/01 08:18:25;;;;;;;5.50;4.40;;;;;;;;;;5045954;28;20200;-72
2023/06/01 08:20:51;;;;;;;6.30;4.00;;;;;;;;;;5049542;28;20204;-72
2023/06/01 08:23:16;;;;;;;4.87;3.97;;;;;;;;;;5044346;28;20234;-72
2023/06/01 08:25:43;;;;;;;5.27;4.27;;;;;;;;;;5027609;28;20184;-72
2023/06/01 08:28:08;;;;;;;4.53;3.73;;;;;;;;;;5041838;28;20192;-72
2023/06/01 08:30:33;;;;;;;5.65;4.32;;;;;;;;;;5048172;28;20174;-72
2023/06/01 08:32:58;;;;;;;5.37;4.53;;;;;;;;;;5049159;28;20189;-73
2023/06/01 08:35:25;;;;;;;4.38;3.97;;;;;;;;;;5029685;28;20213;-72
2023/06/01 08:37:50;;;;;;;5.55;4.03;;;;;;;;;;5048220;28;20223;-72
2023/06/01 08:40:15;;;;;;;8.40;4.57;;;;;;;;;;5023519;28;20170;-73
2023/06/01 08:42:45;;;;;;;5.43;3.72;;;;;;;;;;5043729;28;20185;-72
2023/06/01 08:45:11;;;;;;;4.97;4.53;;;;;;;;;;5030583;28;20182;-72
2023/06/01 08:47:37;;;;;;;7.82;4.07;;;;;;;;;;5047938;28;20186;-72
2023/06/01 08:50:03;;;;;;;4.65;4.25;;;;;;;;;;5049189;28;20266;-72
2023/06/01 08:52:31;;;;;;;5.53;4.82;;;;;;;;;;5047835;28;20280;-72
2023/06/01 08:54:57;;;;;;;6.55;4.90;;;;;;;;;;5049432;28;20182;-73
2023/06/01 08:57:23;;;;;;;4.97;4.45;;;;;;;;;;5032985;28;20238;-72
2023/06/01 08:59:48;;;;;;;5.03;4.10;;;;;;;;;;5046631;28;20185;-72
2023/06/01 09:02:15;;;;;;;6.25;4.25;;;;;;;;;;5036810;28;20182;-75
2023/06/01 09:04:44;;;;;;;6.32;4.57;;;;;;;;;;5047450;28;20186;-72
2023/06/01 09:07:09;;;;;;;7.70;4.50;;;;;;;;;;5050710;28;20170;-72
2023/06/01 09:09:34;;;;;;;8.38;4.20;;;;;;;;;;5049732;28;20178;-72
2023/06/01 09:12:16;;;;;;;4.88;4.45;;;;;;;;;;5050497;28;20174;-72
2023/06/01 09:14:41;;;;;;;6.95;4.70;;;;;;;;;;5026542;28;20249;-75
2023/06/01 09:17:12;;;;;;;5.10;4.20;;;;;;;;;;5035468;28;20288;-75
2023/06/01 09:19:46;;;;;;;4.80;4.30;;;;;;;;;;5041617;28;20176;-75
2023/06/01 09:22:14;;;;;;;6.40;4.65;;;;;;;;;;5045015;28;20162;-75
2023/06/01 09:24:43;;;;;;;4.95;4.13;;;;;;;;;;5042246;28;20183;-75
2023/06/01 09:27:09;;;;;;;5.10;4.43;;;;;;;;;;5044305;28;20182;-75
2023/06/01 09:29:34;;;;;;;9.82;4.88;;;;;;;;;;5032462;28;20197;-75
2023/06/01 09:32:00;;;;;;;11.85;5.03;;;;;;;;;;5049018;28;20174;-75
2023/06/01 09:34:25;;;;;;;8.27;5.10;;;;;;;;;;5027193;28;20174;-75
2023/06/01 09:36:51;;;;;;;6.57;4.55;;;;;;;;;;5032548;28;20198;-75
2023/06/01 09:39:18;;;;;;;60.40;13.55;;;;;;;;;;5030724;28;20198;-75
2023/06/01 09:41:51;;;;;;;5.57;4.55;;;;;;;;;;5049929;28;20236;-75
2023/06/01 09:44:30;;;;;;;7.43;5.10;;;;;;;;;;5032080;28;20243;-75
2023/06/01 09:47:04;;;;;;;4.90;4.40;;;;;;;;;;5048416;28;20170;-75
2023/06/01 09:49:30;;;;;;;6.43;4.63;;;;;;;;;;5031602;28;20182;-75
2023/06/01 09:52:05;;;;;;;6.47;4.95;;;;;;;;;;5025234;28;20185;-75
2023/06/01 09:54:31;;;;;;;6.50;4.82;;;;;;;;;;5042820;28;20173;-75
2023/06/01 09:56:57;;;;;;;5.18;4.70;;;;;;;;;;5047215;28;20320;-75
2023/06/01 09:59:22;;;;;;;5.38;4.35;;;;;;;;;;5035802;28;20265;-75
2023/06/01 10:01:49;;;;;;;5.15;4.65;;;;;;;;;;5037285;28;20170;-75
2023/06/01 10:04:16;;;;;;;5.63;4.55;;;;;;;;;;5053864;28;20231;-75
2023/06/01 10:06:42;;;;;;;5.90;5.28;;;;;;;;;;5036823;28;20193;-75
2023/06/01 10:09:12;;;;;;;6.22;4.82;;;;;;;;;;5049808;28;20171;-75
2023/06/01 10:11:38;;;;;;;6.65;4.55;;;;;;;;;;5051426;28;20184;-75
2023/06/01 10:14:03;;;;;;;6.80;4.97;;;;;;;;;;5034999;28;20190;-76
2023/06/01 10:16:28;;;;;;;7.78;5.60;;;;;;;;;;5053692;28;20248;-75
2023/06/01 10:18:54;;;;;;;5.53;5.03;;;;;;;;;;5038547;28;20202;-75
2023/06/01 10:21:20;;;;;;;8.23;4.53;;;;;;;;;;5037297;28;20201;-75
2023/06/01 10:23:45;;;;;;;5.38;4.60;;;;;;;;;;5053243;28;20182;-75
2023/06/01 10:26:12;;;;;;;6.88;4.05;;;;;;;;;;5051570;28;20198;-75
2023/06/01 10:28:39;;;;;;;5.28;4.28;;;;;;;;;;5047771;28;20281;-76
2023/06/01 10:31:23;;;;;;;5.55;4.70;;;;;;;;;;5034366;28;20197;-75
2023/06/01 10:33:52;;;;;;;5.18;4.63;;;;;;;;;;5034298;28;20213;-76
2023/06/01 10:36:18;;;;;;;9.13;4.97;;;;;;;;;;5044795;28;20205;-75
2023/06/01 10:38:43;;;;;;;7.30;4.18;;;;;;;;;;5046774;28;20190;-76
2023/06/01 10:41:25;;;;;;;5.20;4.75;;;;;;;;;;5032646;28;20181;-76
2023/06/01 10:43:50;;;;;;;5.70;4.38;;;;;;;;;;5051794;28;20181;-75
2023/06/01 10:46:42;;;;;;;6.60;4.90;;;;;;;;;;5052985;28;20221;-76
2023/06/01 10:49:07;;;;;;;6.47;5.35;;;;;;;;;;5028594;28;20190;-76
2023/06/01 10:51:32;;;;;;;4.90;4.32;;;;;;;;;;5053067;28;20184;-76
2023/06/01 10:54:16;;;;;;;5.07;4.38;;;;;;;;;;5054195;28;20178;-76
2023/06/01 10:56:42;;;;;;;7.28;4.80;;;;;;;;;;5037455;28;20229;-76
2023/06/01 10:59:07;;;;;;;5.32;4.65;;;;;;;;;;5051596;28;20245;-76
2023/06/01 11:01:36;;;;;;;5.68;4.53;;;;;;;;;;5035451;28;20189;-76
2023/06/01 11:04:01;;;;;;;5.70;4.70;;;;;;;;;;5035602;28;20198;-76
2023/06/01 11:06:31;;;;;;;5.97;4.22;;;;;;;;;;5052609;28;20322;-76
2023/06/01 11:09:00;;;;;;;5.53;4.57;;;;;;;;;;5053026;28;20261;-76
2023/06/01 11:11:45;;;;;;;6.13;4.60;;;;;;;;;;5051424;28;20201;-76
2023/06/01 11:14:11;;;;;;;6.70;4.93;;;;;;;;;;5031329;28;20170;-76
2023/06/01 11:16:36;;;;;;;6.50;4.82;;;;;;;;;;5033886;28;20210;-76
2023/06/01 11:19:02;;;;;;;6.28;4.88;;;;;;;;;;5051146;28;20173;-76
2023/06/01 11:21:37;;;;;;;6.93;4.75;;;;;;;;;;5039046;28;20178;-74
2023/06/01 11:24:07;;;;;;;7.47;5.30;;;;;;;;;;5037925;28;20241;-74
2023/06/01 11:26:34;;;;;;;4.97;4.47;;;;;;;;;;5044507;28;20170;-74
2023/06/01 11:29:19;;;;;;;8.27;4.97;;;;;;;;;;5050766;28;20174;-74
2023/06/01 11:31:53;;;;;;;18.88;6.65;;;;;;;;;;5048457;28;20178;-74
2023/06/01 11:34:21;;;;;;;6.00;4.70;;;;;;;;;;5027747;28;20182;-74
2023/06/01 11:36:50;;;;;;;6.38;3.80;;;;;;;;;;5051664;28;20210;-74
2023/06/01 11:39:24;;;;;;;6.50;5.40;;;;;;;;;;5043485;28;20166;-74
2023/06/01 11:41:53;;;;;;;5.90;4.88;;;;;;;;;;5051600;28;20182;-74
2023/06/01 11:44:18;;;;;;;5.18;4.28;;;;;;;;;;5050410;28;20171;-74
2023/06/01 11:46:54;;;;;;;6.25;5.30;;;;;;;;;;5030860;28;20182;-74
2023/06/01 11:49:20;;;;;;;4.47;4.03;;;;;;;;;;5048818;28;20270;-74
2023/06/01 11:51:45;;;;;;;6.55;4.82;;;;;;;;;;5033521;28;20273;-74
2023/06/01 11:54:10;;;;;;;5.82;5.18;;;;;;;;;;5034545;28;20183;-74
2023/06/01 11:56:36;;;;;;;5.28;4.68;;;;;;;;;;5033405;28;20250;-74
2023/06/01 11:59:03;;;;;;;11.70;5.13;;;;;;;;;;5010408;28;20198;-74
2023/06/01 12:01:29;;;;;;;5.53;4.97;;;;;;;;;;5010789;28;20171;-74
2023/06/01 12:03:57;;;;;;;5.97;5.38;;;;;;;;;;5007537;28;20255;-74
2023/06/01 12:06:23;;;;;;;5.93;4.68;;;;;;;;;;5009454;28;20192;-74
2023/06/01 12:08:52;;;;;;;6.90;4.60;;;;;;;;;;5011807;28;20266;-74
2023/06/01 12:11:19;;;;;;;5.53;4.70;;;;;;;;;;5011619;28;20263;-74
2023/06/01 12:13:45;;;;;;;8.43;4.68;;;;;;;;;;5010149;28;20229;-75
2023/06/01 12:16:10;;;;;;;8.07;4.60;;;;;;;;;;5009787;28;20239;-74
2023/06/01 12:18:35;;;;;;;5.73;4.63;;;;;;;;;;5009679;28;20206;-74
2023/06/01 12:21:08;;;;;;;6.72;4.50;;;;;;;;;;5010461;28;20416;-74
2023/06/01 12:23:33;;;;;;;5.20;4.70;;;;;;;;;;5006631;28;20182;-74
2023/06/01 12:25:59;;;;;;;7.57;5.15;;;;;;;;;;5011546;28;20179;-74
2023/06/01 12:28:25;;;;;;;5.95;4.60;;;;;;;;;;5009203;28;20212;-74
2023/06/01 12:31:07;;;;;;;6.13;3.92;;;;;;;;;;5013061;28;20179;-74
2023/06/01 12:33:36;;;;;;;8.13;4.97;;;;;;;;;;5010629;28;20187;-74
2023/06/01 12:36:06;;;;;;;5.57;4.60;;;;;;;;;;5010511;28;20215;-74
2023/06/01 12:38:51;;;;;;;5.25;4.40;;;;;;;;;;5015711;28;20257;-74
2023/06/01 12:41:17;;;;;;;5.25;4.50;;;;;;;;;;5006887;28;20183;-74
2023/06/01 12:43:46;;;;;;;5.22;4.72;;;;;;;;;;5010707;28;20183;-74
2023/06/01 12:46:21;;;;;;;5.57;4.47;;;;;;;;;;5008085;28;20179;-74
2023/06/01 12:48:47;;;;;;;7.22;5.22;;;;;;;;;;5008531;28;20237;-74
2023/06/01 12:51:13;;;;;;;4.97;4.47;;;;;;;;;;5010693;28;20180;-74
2023/06/01 12:53:38;;;;;;;5.38;4.88;;;;;;;;;;5016288;28;20179;-74
2023/06/01 12:56:03;;;;;;;6.07;4.70;;;;;;;;;;5012877;28;20199;-74
2023/06/01 12:58:29;;;;;;;7.95;4.40;;;;;;;;;;5032654;28;20194;-80
2023/06/01 13:00:54;;;;;;;6.22;5.60;;;;;;;;;;5033804;28;20185;-74
2023/06/01 13:03:21;;;;;;;8.30;5.00;;;;;;;;;;5031576;28;20216;-74
2023/06/01 13:05:46;;;;;;;8.02;5.00;;;;;;;;;;5044593;28;20182;-74
2023/06/01 13:08:15;;;;;;;5.93;5.35;;;;;;;;;;5047031;28;20180;-74
2023/06/01 13:10:41;;;;;;;6.72;4.57;;;;;;;;;;5042351;28;20170;-74
2023/06/01 13:13:07;;;;;;;4.95;4.13;;;;;;;;;;5049771;28;20189;-74
2023/06/01 13:15:32;;;;;;;6.95;4.93;;;;;;;;;;5033201;28;20273;-74
2023/06/01 13:17:57;;;;;;;5.90;4.50;;;;;;;;;;5050003;28;20265;-74
2023/06/01 13:20:23;;;;;;;5.13;4.63;;;;;;;;;;5050778;28;20173;-74
2023/06/01 13:22:48;;;;;;;5.97;4.78;;;;;;;;;;5045053;28;20205;-74
2023/06/01 13:25:14;;;;;;;4.88;4.38;;;;;;;;;;5036047;28;20177;-74
2023/06/01 13:27:39;;;;;;;5.20;4.53;;;;;;;;;;5039529;28;20174;-74
2023/06/01 13:30:04;;;;;;;6.20;4.50;;;;;;;;;;5034036;28;20261;-74
2023/06/01 13:32:30;;;;;;;8.23;4.43;;;;;;;;;;5034346;28;20184;-74
2023/06/01 13:34:56;;;;;;;6.40;4.40;;;;;;;;;;5039508;28;20245;-74
2023/06/01 13:37:21;;;;;;;5.53;4.18;;;;;;;;;;5053909;28;20190;-74
2023/06/01 13:39:49;;;;;;;6.10;4.28;;;;;;;;;;5044764;28;20178;-74
2023/06/01 13:42:16;;;;;;;4.05;3.75;;;;;;;;;;5054819;28;20170;-74
2023/06/01 13:44:45;;;;;;;9.50;4.82;;;;;;;;;;5049855;28;20261;-74
2023/06/01 13:47:10;;;;;;;7.55;4.43;;;;;;;;;;5033368;28;20184;-74
2023/06/01 13:49:36;;;;;;;6.05;4.47;;;;;;;;;;5050008;28;20245;-74
2023/06/01 13:52:01;;;;;;;6.72;4.50;;;;;;;;;;5053624;28;20193;-74
2023/06/01 13:54:26;;;;;;;8.75;3.58;;;;;;;;;;5057303;28;20182;-74
2023/06/01 13:56:51;;;;;;;5.88;4.53;;;;;;;;;;5053556;28;20330;-74
2023/06/01 13:59:17;;;;;;;5.97;4.30;;;;;;;;;;5044855;28;20174;-74
2023/06/01 14:01:42;;;;;;;6.35;4.13;;;;;;;;;;5036260;28;20216;-74
2023/06/01 14:04:07;;;;;;;5.90;3.67;;;;;;;;;;5053165;28;20230;-74
2023/06/01 14:06:34;;;;;;;4.93;4.15;;;;;;;;;;5051543;28;20199;-74
2023/06/01 14:08:59;;;;;;;7.18;4.05;;;;;;;;;;5053886;28;20259;-74
2023/06/01 14:11:25;;;;;;;4.28;3.85;;;;;;;;;;5044053;28;20182;-74
2023/06/01 14:13:50;;;;;;;5.75;3.40;;;;;;;;;;5045057;28;20174;-74
2023/06/01 14:16:15;;;;;;;6.28;3.65;;;;;;;;;;5034229;28;20202;-74
2023/06/01 14:18:41;;;;;;;4.97;3.63;;;;;;;;;;5052408;28;20189;-75
2023/06/01 14:21:06;;;;;;;4.80;3.67;;;;;;;;;;5035006;28;20171;-74
2023/06/01 14:23:32;;;;;;;6.25;4.40;;;;;;;;;;5042425;28;20399;-74
2023/06/01 14:25:57;;;;;;;4.35;3.42;;;;;;;;;;5049543;28;20182;-74
2023/06/01 14:28:22;;;;;;;4.07;3.60;;;;;;;;;;5047201;28;20170;-75
2023/06/01 14:30:47;;;;;;;6.93;3.42;;;;;;;;;;5051597;28;20236;-75
2023/06/01 14:33:13;;;;;;;4.63;3.70;;;;;;;;;;5033180;28;20170;-75
2023/06/01 14:35:38;;;;;;;6.05;3.50;;;;;;;;;;5050489;28;20271;-75
2023/06/01 14:38:03;;;;;;;4.05;3.47;;;;;;;;;;5034754;28;20166;-75
2023/06/01 14:40:28;;;;;;;6.50;3.70;;;;;;;;;;5050135;28;20236;-75